createdAt,value
2018-12-22T00:00:04.648Z,9.80
2018-12-22T00:01:04.643Z,9.80
2018-12-22T00:02:04.163Z,9.80
2018-12-22T00:03:04.404Z,9.80
2018-12-22T00:04:04.857Z,9.80
2018-12-22T00:05:05.064Z,9.80
2018-12-22T00:06:04.265Z,9.80
2018-12-22T00:07:04.662Z,9.80
2018-12-22T00:08:04.774Z,9.80
2018-12-22T00:09:05.064Z,9.90
2018-12-22T00:10:04.353Z,9.90
2018-12-22T00:11:04.892Z,9.90
2018-12-22T00:12:04.570Z,9.90
2018-12-22T00:13:04.632Z,9.90
2018-12-22T00:14:05.087Z,9.90
2018-12-22T00:15:04.272Z,9.90
2018-12-22T00:16:04.372Z,9.90
2018-12-22T00:17:04.562Z,9.90
2018-12-22T00:18:04.641Z,9.90
2018-12-22T00:19:04.963Z,9.90
2018-12-22T00:20:04.665Z,9.90
2018-12-22T00:21:04.721Z,9.90
2018-12-22T00:22:04.178Z,9.90
2018-12-22T00:23:04.348Z,9.90
2018-12-22T00:24:04.751Z,9.90
2018-12-22T00:25:04.820Z,9.90
2018-12-22T00:26:04.901Z,9.90
2018-12-22T00:27:05.073Z,9.90
2018-12-22T00:28:04.713Z,9.90
2018-12-22T00:29:04.323Z,9.90
2018-12-22T00:30:04.911Z,9.90
2018-12-22T00:31:05.025Z,9.90
2018-12-22T00:32:05.187Z,9.90
2018-12-22T00:33:04.694Z,9.90
2018-12-22T00:34:04.790Z,9.90
2018-12-22T00:35:04.960Z,9.90
2018-12-22T00:36:04.693Z,9.90
2018-12-22T00:37:04.642Z,9.90
2018-12-22T00:38:04.589Z,9.90
2018-12-22T00:39:04.943Z,9.90
2018-12-22T00:40:04.397Z,9.90
2018-12-22T00:41:05.050Z,9.90
2018-12-22T00:42:04.641Z,9.90
2018-12-22T00:43:04.788Z,9.90
2018-12-22T00:44:04.186Z,9.90
2018-12-22T00:45:04.400Z,9.90
2018-12-22T00:46:04.461Z,9.90
2018-12-22T00:47:04.720Z,9.90
2018-12-22T00:48:04.610Z,9.90
2018-12-22T00:49:04.384Z,9.90
2018-12-22T00:50:04.945Z,9.90
2018-12-22T00:51:05.139Z,9.90
2018-12-22T00:52:04.643Z,9.90
2018-12-22T00:53:04.620Z,9.90
2018-12-22T00:54:04.681Z,9.90
2018-12-22T00:55:05.233Z,9.90
2018-12-22T00:56:05.237Z,9.90
2018-12-22T00:57:04.450Z,9.90
2018-12-22T00:58:05.050Z,9.90
2018-12-22T00:59:05.160Z,9.90
2018-12-22T01:00:04.383Z,9.90
2018-12-22T01:01:04.536Z,9.90
2018-12-22T01:02:04.565Z,9.90
2018-12-22T01:03:04.642Z,9.90
2018-12-22T01:04:04.875Z,9.90
2018-12-22T01:05:04.384Z,10.00
2018-12-22T01:06:04.849Z,10.00
2018-12-22T01:07:04.335Z,10.00
2018-12-22T01:08:09.512Z,10.00
2018-12-22T01:09:04.991Z,10.00
2018-12-22T01:10:04.356Z,10.00
2018-12-22T01:11:04.510Z,10.00
2018-12-22T01:12:04.921Z,9.90
2018-12-22T01:13:04.921Z,9.90
2018-12-22T01:14:04.655Z,9.90
2018-12-22T01:15:04.717Z,9.90
2018-12-22T01:16:04.973Z,9.90
2018-12-22T01:17:05.126Z,9.90
2018-12-22T01:18:04.538Z,9.90
2018-12-22T01:19:04.921Z,9.90
2018-12-22T01:20:05.123Z,9.90
2018-12-22T01:21:05.167Z,9.90
2018-12-22T01:22:04.774Z,9.90
2018-12-22T01:23:04.716Z,9.90
2018-12-22T01:24:05.131Z,9.90
2018-12-22T01:25:05.111Z,9.90
2018-12-22T01:26:04.592Z,9.90
2018-12-22T01:27:04.812Z,9.90
2018-12-22T01:28:04.250Z,9.90
2018-12-22T01:29:04.817Z,9.90
2018-12-22T01:30:04.376Z,9.90
2018-12-22T01:31:04.830Z,9.90
2018-12-22T01:32:04.292Z,9.90
2018-12-22T01:33:04.390Z,9.90
2018-12-22T01:34:04.998Z,9.90
2018-12-22T01:35:05.091Z,9.90
2018-12-22T01:36:09.853Z,9.90
2018-12-22T01:37:04.335Z,9.90
2018-12-22T01:38:04.494Z,9.90
2018-12-22T01:39:04.712Z,9.90
2018-12-22T01:40:04.427Z,9.90
2018-12-22T01:41:04.489Z,9.90
2018-12-22T01:42:04.482Z,9.90
2018-12-22T01:43:05.113Z,9.90
2018-12-22T01:44:05.309Z,9.90
2018-12-22T01:45:04.303Z,9.90
2018-12-22T01:46:04.409Z,9.90
2018-12-22T01:47:04.934Z,9.90
2018-12-22T01:48:04.368Z,9.90
2018-12-22T01:49:04.879Z,9.90
2018-12-22T01:50:04.649Z,9.90
2018-12-22T01:51:04.999Z,9.90
2018-12-22T01:52:04.336Z,9.90
2018-12-22T01:53:04.613Z,9.90
2018-12-22T01:54:05.592Z,9.90
2018-12-22T01:55:04.978Z,9.80
2018-12-22T01:56:04.361Z,9.90
2018-12-22T01:57:05.006Z,9.80
2018-12-22T01:58:04.739Z,9.80
2018-12-22T01:59:04.814Z,9.80
2018-12-22T02:00:04.311Z,9.80
2018-12-22T02:01:04.353Z,9.80
2018-12-22T02:02:04.385Z,9.80
2018-12-22T02:03:04.573Z,9.80
2018-12-22T02:04:05.098Z,9.80
2018-12-22T02:05:04.563Z,9.80
2018-12-22T02:06:04.577Z,9.80
2018-12-22T02:07:04.701Z,9.80
2018-12-22T02:08:05.301Z,9.80
2018-12-22T02:09:04.255Z,9.80
2018-12-22T02:10:04.491Z,9.80
2018-12-22T02:11:04.535Z,9.80
2018-12-22T02:12:05.033Z,9.80
2018-12-22T02:13:05.312Z,9.80
2018-12-22T02:14:04.540Z,9.80
2018-12-22T02:15:05.100Z,9.80
2018-12-22T02:16:04.179Z,9.80
2018-12-22T02:17:04.803Z,9.80
2018-12-22T02:18:04.437Z,9.80
2018-12-22T02:19:04.983Z,9.80
2018-12-22T02:20:04.463Z,9.70
2018-12-22T02:21:04.844Z,9.70
2018-12-22T02:22:05.211Z,9.70
2018-12-22T02:23:04.367Z,9.70
2018-12-22T02:24:04.930Z,9.70
2018-12-22T02:25:05.039Z,9.70
2018-12-22T02:26:04.633Z,9.70
2018-12-22T02:27:05.173Z,9.70
2018-12-22T02:28:04.751Z,9.60
2018-12-22T02:29:04.343Z,9.60
2018-12-22T02:30:04.681Z,9.60
2018-12-22T02:31:04.944Z,9.60
2018-12-22T02:32:04.953Z,9.60
2018-12-22T02:33:05.190Z,9.60
2018-12-22T02:34:05.095Z,9.60
2018-12-22T02:35:04.248Z,9.60
2018-12-22T02:36:04.718Z,9.60
2018-12-22T02:37:04.839Z,9.60
2018-12-22T02:38:05.102Z,9.60
2018-12-22T02:39:04.646Z,9.60
2018-12-22T02:40:04.930Z,9.60
2018-12-22T02:41:04.417Z,9.60
2018-12-22T02:42:04.709Z,9.60
2018-12-22T02:43:04.797Z,9.60
2018-12-22T02:44:04.914Z,9.60
2018-12-22T02:45:04.277Z,9.60
2018-12-22T02:46:04.339Z,9.50
2018-12-22T02:47:04.473Z,9.50
2018-12-22T02:48:04.660Z,9.50
2018-12-22T02:49:04.697Z,9.50
2018-12-22T02:50:04.205Z,9.50
2018-12-22T02:51:04.331Z,9.50
2018-12-22T02:52:04.776Z,9.50
2018-12-22T02:53:04.482Z,9.50
2018-12-22T02:54:04.715Z,9.50
2018-12-22T02:55:05.080Z,9.50
2018-12-22T02:56:04.897Z,9.50
2018-12-22T02:57:05.053Z,9.50
2018-12-22T02:58:04.682Z,9.50
2018-12-22T02:59:06.023Z,9.50
2018-12-22T03:00:05.148Z,9.50
2018-12-22T03:01:09.353Z,9.50
2018-12-22T03:02:04.825Z,9.50
2018-12-22T03:03:04.210Z,9.50
2018-12-22T03:04:04.491Z,9.50
2018-12-22T03:05:05.021Z,9.50
2018-12-22T03:06:04.316Z,9.50
2018-12-22T03:07:04.502Z,9.50
2018-12-22T03:08:04.884Z,9.50
2018-12-22T03:09:04.651Z,9.50
2018-12-22T03:10:04.340Z,9.50
2018-12-22T03:11:04.670Z,9.50
2018-12-22T03:12:04.813Z,9.50
2018-12-22T03:13:04.430Z,9.50
2018-12-22T03:14:04.773Z,9.50
2018-12-22T03:15:04.832Z,9.50
2018-12-22T03:16:04.384Z,9.50
2018-12-22T03:17:04.942Z,9.50
2018-12-22T03:18:05.165Z,9.50
2018-12-22T03:19:04.354Z,9.50
2018-12-22T03:20:04.737Z,9.50
2018-12-22T03:21:04.339Z,9.40
2018-12-22T03:22:04.438Z,9.50
2018-12-22T03:23:04.907Z,9.40
2018-12-22T03:24:05.032Z,9.50
2018-12-22T03:25:05.183Z,9.40
2018-12-22T03:26:04.723Z,9.40
2018-12-22T03:27:04.573Z,9.40
2018-12-22T03:28:05.022Z,9.40
2018-12-22T03:29:15.378Z,9.40
2018-12-22T03:30:04.412Z,9.40
2018-12-22T03:31:04.517Z,9.40
2018-12-22T03:32:04.586Z,9.40
2018-12-22T03:33:05.107Z,9.40
2018-12-22T03:34:04.232Z,9.40
2018-12-22T03:35:05.115Z,9.40
2018-12-22T03:36:04.992Z,9.40
2018-12-22T03:37:04.253Z,9.40
2018-12-22T03:38:04.274Z,9.40
2018-12-22T03:39:04.644Z,9.40
2018-12-22T03:40:04.583Z,9.30
2018-12-22T03:41:04.793Z,9.30
2018-12-22T03:42:04.530Z,9.30
2018-12-22T03:43:04.888Z,9.30
2018-12-22T03:44:04.368Z,9.30
2018-12-22T03:45:05.043Z,9.30
2018-12-22T03:46:05.135Z,9.30
2018-12-22T03:47:04.214Z,9.30
2018-12-22T03:48:04.288Z,9.30
2018-12-22T03:49:09.585Z,9.30
2018-12-22T03:50:05.050Z,9.30
2018-12-22T03:51:05.111Z,9.30
2018-12-22T03:52:04.366Z,9.30
2018-12-22T03:53:04.603Z,9.30
2018-12-22T03:54:05.112Z,9.30
2018-12-22T03:55:04.413Z,9.30
2018-12-22T03:56:04.739Z,9.30
2018-12-22T03:57:05.109Z,9.30
2018-12-22T03:58:04.304Z,9.30
2018-12-22T03:59:04.361Z,9.30
2018-12-22T04:00:04.622Z,9.20
2018-12-22T04:01:04.996Z,9.20
2018-12-22T04:02:04.884Z,9.20
2018-12-22T04:03:04.908Z,9.20
2018-12-22T04:04:05.077Z,9.30
2018-12-22T04:05:04.478Z,9.30
2018-12-22T04:06:04.636Z,9.20
2018-12-22T04:07:04.407Z,9.20
2018-12-22T04:08:04.789Z,9.20
2018-12-22T04:09:05.051Z,9.20
2018-12-22T04:10:04.493Z,9.20
2018-12-22T04:11:04.920Z,9.20
2018-12-22T04:12:05.150Z,9.20
2018-12-22T04:13:04.300Z,9.20
2018-12-22T04:14:04.312Z,9.20
2018-12-22T04:15:04.990Z,9.20
2018-12-22T04:16:05.093Z,9.20
2018-12-22T04:17:05.277Z,9.20
2018-12-22T04:18:04.368Z,9.20
2018-12-22T04:19:04.506Z,9.20
2018-12-22T04:20:04.528Z,9.20
2018-12-22T04:21:04.562Z,9.20
2018-12-22T04:22:04.845Z,9.20
2018-12-22T04:23:04.850Z,9.20
2018-12-22T04:24:04.404Z,9.20
2018-12-22T04:25:04.445Z,9.20
2018-12-22T04:26:04.633Z,9.20
2018-12-22T04:27:04.798Z,9.20
2018-12-22T04:28:05.029Z,9.20
2018-12-22T04:29:05.136Z,9.20
2018-12-22T04:30:04.474Z,9.20
2018-12-22T04:31:05.073Z,9.20
2018-12-22T04:32:04.313Z,9.20
2018-12-22T04:33:04.522Z,9.20
2018-12-22T04:34:04.426Z,9.20
2018-12-22T04:35:04.848Z,9.20
2018-12-22T04:36:04.844Z,9.20
2018-12-22T04:37:04.999Z,9.20
2018-12-22T04:38:05.033Z,9.20
2018-12-22T04:39:04.608Z,9.20
2018-12-22T04:40:04.695Z,9.20
2018-12-22T04:41:05.363Z,9.20
2018-12-22T04:42:05.120Z,9.20
2018-12-22T04:43:04.264Z,9.20
2018-12-22T04:44:04.504Z,9.20
2018-12-22T04:45:04.795Z,9.20
2018-12-22T04:46:05.189Z,9.20
2018-12-22T04:47:04.579Z,9.20
2018-12-22T04:48:04.322Z,9.20
2018-12-22T04:49:09.435Z,9.20
2018-12-22T04:50:04.445Z,9.20
2018-12-22T04:51:04.650Z,9.20
2018-12-22T04:52:04.636Z,9.20
2018-12-22T04:53:04.591Z,9.20
2018-12-22T04:54:04.721Z,9.20
2018-12-22T04:55:05.018Z,9.20
2018-12-22T04:56:04.996Z,9.20
2018-12-22T04:57:05.443Z,9.20
2018-12-22T04:58:04.396Z,9.20
2018-12-22T04:59:05.102Z,9.20
2018-12-22T05:00:05.172Z,9.20
2018-12-22T05:01:04.273Z,9.20
2018-12-22T05:02:04.326Z,9.20
2018-12-22T05:03:04.770Z,9.20
2018-12-22T05:04:04.766Z,9.20
2018-12-22T05:05:04.318Z,9.20
2018-12-22T05:06:04.646Z,9.20
2018-12-22T05:07:04.921Z,9.20
2018-12-22T05:08:05.031Z,9.20
2018-12-22T05:09:05.188Z,9.20
2018-12-22T05:10:04.658Z,9.20
2018-12-22T05:11:05.161Z,9.20
2018-12-22T05:12:04.741Z,9.20
2018-12-22T05:13:05.097Z,9.20
2018-12-22T05:14:04.328Z,9.10
2018-12-22T05:15:05.022Z,9.10
2018-12-22T05:16:05.147Z,9.10
2018-12-22T05:17:04.473Z,9.10
2018-12-22T05:18:04.882Z,9.10
2018-12-22T05:19:04.360Z,9.10
2018-12-22T05:20:04.280Z,9.10
2018-12-22T05:21:04.412Z,9.10
2018-12-22T05:22:04.731Z,9.10
2018-12-22T05:23:04.922Z,9.10
2018-12-22T05:24:04.280Z,9.10
2018-12-22T05:25:04.844Z,9.10
2018-12-22T05:26:04.352Z,9.10
2018-12-22T05:27:05.110Z,9.10
2018-12-22T05:28:04.964Z,9.10
2018-12-22T05:29:09.997Z,9.10
2018-12-22T05:30:04.502Z,9.10
2018-12-22T05:31:04.466Z,9.10
2018-12-22T05:32:04.385Z,9.10
2018-12-22T05:33:04.496Z,9.10
2018-12-22T05:34:04.455Z,9.10
2018-12-22T05:35:04.650Z,9.10
2018-12-22T05:36:04.326Z,9.00
2018-12-22T05:37:04.424Z,9.00
2018-12-22T05:38:04.469Z,9.00
2018-12-22T05:39:05.137Z,9.00
2018-12-22T05:40:04.634Z,9.00
2018-12-22T05:41:05.157Z,9.00
2018-12-22T05:42:04.390Z,9.00
2018-12-22T05:43:04.842Z,9.00
2018-12-22T05:44:04.435Z,9.00
2018-12-22T05:45:05.140Z,9.00
2018-12-22T05:46:05.196Z,9.00
2018-12-22T05:47:04.203Z,9.00
2018-12-22T05:48:04.744Z,9.00
2018-12-22T05:49:10.267Z,9.00
2018-12-22T05:50:04.750Z,9.00
2018-12-22T05:51:04.293Z,9.00
2018-12-22T05:52:04.419Z,9.00
2018-12-22T05:53:05.180Z,9.00
2018-12-22T05:54:04.660Z,9.00
2018-12-22T05:55:05.266Z,9.00
2018-12-22T05:56:04.546Z,9.00
2018-12-22T05:57:05.259Z,9.00
2018-12-22T05:58:04.641Z,9.00
2018-12-22T05:59:05.027Z,9.00
2018-12-22T06:00:05.141Z,9.00
2018-12-22T06:01:04.362Z,9.00
2018-12-22T06:02:04.347Z,9.00
2018-12-22T06:03:04.502Z,9.00
2018-12-22T06:04:04.538Z,9.00
2018-12-22T06:05:04.589Z,9.00
2018-12-22T06:06:04.924Z,9.00
2018-12-22T06:07:04.184Z,9.00
2018-12-22T06:08:04.289Z,9.00
2018-12-22T06:09:04.798Z,9.00
2018-12-22T06:10:04.924Z,9.00
2018-12-22T06:11:04.563Z,9.00
2018-12-22T06:12:04.858Z,9.00
2018-12-22T06:13:04.462Z,9.00
2018-12-22T06:14:04.675Z,9.00
2018-12-22T06:15:05.151Z,9.00
2018-12-22T06:16:05.206Z,9.00
2018-12-22T06:17:04.336Z,9.00
2018-12-22T06:18:04.509Z,9.00
2018-12-22T06:19:05.051Z,9.00
2018-12-22T06:20:04.628Z,9.00
2018-12-22T06:21:04.983Z,9.00
2018-12-22T06:22:05.121Z,9.00
2018-12-22T06:23:05.102Z,9.00
2018-12-22T06:24:04.187Z,9.00
2018-12-22T06:25:04.421Z,9.00
2018-12-22T06:26:05.048Z,9.00
2018-12-22T06:27:05.096Z,9.00
2018-12-22T06:28:04.927Z,9.00
2018-12-22T06:29:05.007Z,9.00
2018-12-22T06:30:09.030Z,9.00
2018-12-22T06:31:05.226Z,9.00
2018-12-22T06:32:04.335Z,9.00
2018-12-22T06:33:04.575Z,9.00
2018-12-22T06:34:04.604Z,9.00
2018-12-22T06:35:04.632Z,9.00
2018-12-22T06:36:04.841Z,9.00
2018-12-22T06:37:04.369Z,9.00
2018-12-22T06:38:04.570Z,9.00
2018-12-22T06:39:04.448Z,9.00
2018-12-22T06:40:05.061Z,9.00
2018-12-22T06:41:04.287Z,9.00
2018-12-22T06:42:04.358Z,9.10
2018-12-22T06:43:04.559Z,9.00
2018-12-22T06:44:04.755Z,9.00
2018-12-22T06:45:04.514Z,9.00
2018-12-22T06:46:04.692Z,9.00
2018-12-22T06:47:04.812Z,9.00
2018-12-22T06:48:04.801Z,9.00
2018-12-22T06:49:04.972Z,9.10
2018-12-22T06:50:05.198Z,9.00
2018-12-22T06:51:04.749Z,9.00
2018-12-22T06:52:04.753Z,9.00
2018-12-22T06:53:04.336Z,9.00
2018-12-22T06:54:04.316Z,9.00
2018-12-22T06:55:04.610Z,9.00
2018-12-22T06:56:04.808Z,9.00
2018-12-22T06:57:04.920Z,9.00
2018-12-22T06:58:05.220Z,9.00
2018-12-22T06:59:04.301Z,9.00
2018-12-22T07:00:05.135Z,9.00
2018-12-22T07:01:04.962Z,9.00
2018-12-22T07:02:05.034Z,9.00
2018-12-22T07:03:04.434Z,9.00
2018-12-22T07:04:04.582Z,9.00
2018-12-22T07:05:04.875Z,9.00
2018-12-22T07:06:05.133Z,9.00
2018-12-22T07:07:04.590Z,9.00
2018-12-22T07:08:04.772Z,9.00
2018-12-22T07:09:04.283Z,9.00
2018-12-22T07:10:04.397Z,9.00
2018-12-22T07:11:04.964Z,9.00
2018-12-22T07:12:04.972Z,9.00
2018-12-22T07:13:05.020Z,9.00
2018-12-22T07:14:04.561Z,9.00
2018-12-22T07:15:04.697Z,9.00
2018-12-22T07:16:04.870Z,9.00
2018-12-22T07:17:05.138Z,9.00
2018-12-22T07:18:04.355Z,9.00
2018-12-22T07:19:04.713Z,9.00
2018-12-22T07:20:04.775Z,9.00
2018-12-22T07:21:04.280Z,9.00
2018-12-22T07:22:04.391Z,9.00
2018-12-22T07:23:04.814Z,9.00
2018-12-22T07:24:04.704Z,9.00
2018-12-22T07:25:04.245Z,9.00
2018-12-22T07:26:04.447Z,9.00
2018-12-22T07:27:04.746Z,9.00
2018-12-22T07:28:04.873Z,9.00
2018-12-22T07:29:05.235Z,9.00
2018-12-22T07:30:05.255Z,9.00
2018-12-22T07:31:04.390Z,9.00
2018-12-22T07:32:04.897Z,9.00
2018-12-22T07:33:04.217Z,9.00
2018-12-22T07:34:09.383Z,9.00
2018-12-22T07:35:04.817Z,9.00
2018-12-22T07:36:04.286Z,9.00
2018-12-22T07:37:04.518Z,9.00
2018-12-22T07:38:04.625Z,9.00
2018-12-22T07:39:04.961Z,9.00
2018-12-22T07:40:05.134Z,9.00
2018-12-22T07:41:04.234Z,9.00
2018-12-22T07:42:04.336Z,9.00
2018-12-22T07:43:04.414Z,9.00
2018-12-22T07:44:04.765Z,9.00
2018-12-22T07:45:05.131Z,9.00
2018-12-22T07:46:04.698Z,9.00
2018-12-22T07:47:05.014Z,9.00
2018-12-22T07:48:04.690Z,9.00
2018-12-22T07:49:05.020Z,9.00
2018-12-22T07:50:04.648Z,9.00
2018-12-22T07:51:04.901Z,9.00
2018-12-22T07:52:04.554Z,9.00
2018-12-22T07:53:04.640Z,9.10
2018-12-22T07:54:09.902Z,9.10
2018-12-22T07:55:04.369Z,9.10
2018-12-22T07:56:04.700Z,9.10
2018-12-22T07:57:05.201Z,9.10
2018-12-22T07:58:04.298Z,9.10
2018-12-22T07:59:04.333Z,9.10
2018-12-22T08:00:04.799Z,9.10
2018-12-22T08:01:05.195Z,9.10
2018-12-22T08:02:04.405Z,9.10
2018-12-22T08:03:04.454Z,9.10
2018-12-22T08:04:04.540Z,9.10
2018-12-22T08:05:04.679Z,9.10
2018-12-22T08:06:04.344Z,9.10
2018-12-22T08:07:04.396Z,9.10
2018-12-22T08:08:04.519Z,9.10
2018-12-22T08:09:05.110Z,9.10
2018-12-22T08:10:04.355Z,9.10
2018-12-22T08:11:05.187Z,9.10
2018-12-22T08:12:04.977Z,9.10
2018-12-22T08:13:04.219Z,9.10
2018-12-22T08:14:04.757Z,9.10
2018-12-22T08:15:05.161Z,9.10
2018-12-22T08:16:04.197Z,9.20
2018-12-22T08:17:04.377Z,9.20
2018-12-22T08:18:04.866Z,9.20
2018-12-22T08:19:04.993Z,9.20
2018-12-22T08:20:04.528Z,9.20
2018-12-22T08:21:04.870Z,9.20
2018-12-22T08:22:04.580Z,9.20
2018-12-22T08:23:04.808Z,9.20
2018-12-22T08:24:04.276Z,9.30
2018-12-22T08:25:04.619Z,9.30
2018-12-22T08:26:04.619Z,9.30
2018-12-22T08:27:04.609Z,9.30
2018-12-22T08:28:04.857Z,9.40
2018-12-22T08:29:10.000Z,9.40
2018-12-22T08:30:04.443Z,9.40
2018-12-22T08:31:04.562Z,9.40
2018-12-22T08:32:04.539Z,9.40
2018-12-22T08:33:05.123Z,9.40
2018-12-22T08:34:04.226Z,9.50
2018-12-22T08:35:04.836Z,9.50
2018-12-22T08:36:04.346Z,9.50
2018-12-22T08:37:04.775Z,9.50
2018-12-22T08:38:04.792Z,9.50
2018-12-22T08:39:04.874Z,9.50
2018-12-22T08:40:05.166Z,9.50
2018-12-22T08:41:04.313Z,9.50
2018-12-22T08:42:04.346Z,9.50
2018-12-22T08:43:04.994Z,9.50
2018-12-22T08:44:05.093Z,9.50
2018-12-22T08:45:05.139Z,9.50
2018-12-22T08:46:04.655Z,9.50
2018-12-22T08:47:04.635Z,9.50
2018-12-22T08:48:05.031Z,9.50
2018-12-22T08:49:05.071Z,9.50
2018-12-22T08:50:08.897Z,9.50
2018-12-22T08:51:05.041Z,9.50
2018-12-22T08:52:04.843Z,9.50
2018-12-22T08:53:04.778Z,9.50
2018-12-22T08:54:05.120Z,9.50
2018-12-22T08:55:05.017Z,9.50
2018-12-22T08:56:04.457Z,9.50
2018-12-22T08:57:04.503Z,9.60
2018-12-22T08:58:04.532Z,9.60
2018-12-22T08:59:04.722Z,9.60
2018-12-22T09:00:04.924Z,9.60
2018-12-22T09:01:04.988Z,9.60
2018-12-22T09:02:04.249Z,9.60
2018-12-22T09:03:04.479Z,9.60
2018-12-22T09:04:04.667Z,9.60
2018-12-22T09:05:04.832Z,9.70
2018-12-22T09:06:04.993Z,9.70
2018-12-22T09:07:04.216Z,9.70
2018-12-22T09:08:04.427Z,9.70
2018-12-22T09:09:04.952Z,9.70
2018-12-22T09:10:04.893Z,9.70
2018-12-22T09:11:05.054Z,9.70
2018-12-22T09:12:05.135Z,9.70
2018-12-22T09:13:05.023Z,9.70
2018-12-22T09:14:04.451Z,9.80
2018-12-22T09:15:04.664Z,9.70
2018-12-22T09:16:04.856Z,9.70
2018-12-22T09:17:04.459Z,9.80
2018-12-22T09:18:04.767Z,9.80
2018-12-22T09:19:05.135Z,9.80
2018-12-22T09:20:05.067Z,9.80
2018-12-22T09:21:04.215Z,9.80
2018-12-22T09:22:04.501Z,9.80
2018-12-22T09:23:04.504Z,9.80
2018-12-22T09:24:04.596Z,9.80
2018-12-22T09:25:04.876Z,9.80
2018-12-22T09:26:05.020Z,9.80
2018-12-22T09:27:05.080Z,9.80
2018-12-22T09:28:05.139Z,9.90
2018-12-22T09:29:09.403Z,9.90
2018-12-22T09:30:04.868Z,9.90
2018-12-22T09:31:04.867Z,9.90
2018-12-22T09:32:04.908Z,9.90
2018-12-22T09:33:04.242Z,9.90
2018-12-22T09:34:13.016Z,9.90
2018-12-22T09:35:04.212Z,9.90
2018-12-22T09:36:04.312Z,9.90
2018-12-22T09:37:06.821Z,9.90
2018-12-22T09:38:04.688Z,10.00
2018-12-22T09:39:04.688Z,10.00
2018-12-22T09:40:04.685Z,10.00
2018-12-22T09:41:04.898Z,10.00
2018-12-22T09:42:05.171Z,10.00
2018-12-22T09:43:04.338Z,10.00
2018-12-22T09:44:05.011Z,10.00
2018-12-22T09:45:04.631Z,10.00
2018-12-22T09:46:04.251Z,10.00
2018-12-22T09:47:04.682Z,10.00
2018-12-22T09:48:05.253Z,10.00
2018-12-22T09:49:04.221Z,10.00
2018-12-22T09:50:04.724Z,10.00
2018-12-22T09:51:04.711Z,10.00
2018-12-22T09:52:04.674Z,10.00
2018-12-22T09:53:04.837Z,10.00
2018-12-22T09:54:04.313Z,10.10
2018-12-22T09:55:04.573Z,10.10
2018-12-22T09:56:04.826Z,10.10
2018-12-22T09:57:04.238Z,10.10
2018-12-22T09:58:04.247Z,10.10
2018-12-22T09:59:06.352Z,10.10
2018-12-22T10:00:05.184Z,10.10
2018-12-22T10:01:09.209Z,10.10
2018-12-22T10:02:04.414Z,10.10
2018-12-22T10:03:04.880Z,10.10
2018-12-22T10:04:04.965Z,10.10
2018-12-22T10:05:04.656Z,10.10
2018-12-22T10:06:04.402Z,10.10
2018-12-22T10:07:04.495Z,10.10
2018-12-22T10:08:09.608Z,10.10
2018-12-22T10:09:05.134Z,10.10
2018-12-22T10:10:04.645Z,10.10
2018-12-22T10:11:05.251Z,10.20
2018-12-22T10:12:04.329Z,10.20
2018-12-22T10:13:04.582Z,10.20
2018-12-22T10:14:04.640Z,10.20
2018-12-22T10:15:05.133Z,10.20
2018-12-22T10:16:05.248Z,10.20
2018-12-22T10:17:04.976Z,10.20
2018-12-22T10:18:04.363Z,10.20
2018-12-22T10:19:04.566Z,10.20
2018-12-22T10:20:04.586Z,10.20
2018-12-22T10:21:04.875Z,10.20
2018-12-22T10:22:04.747Z,10.20
2018-12-22T10:23:04.537Z,10.20
2018-12-22T10:24:04.809Z,10.20
2018-12-22T10:25:05.086Z,10.20
2018-12-22T10:26:04.662Z,10.20
2018-12-22T10:27:04.354Z,10.20
2018-12-22T10:28:04.356Z,10.20
2018-12-22T10:29:04.584Z,10.20
2018-12-22T10:30:04.648Z,10.20
2018-12-22T10:31:05.017Z,10.30
2018-12-22T10:32:04.566Z,10.30
2018-12-22T10:33:04.562Z,10.20
2018-12-22T10:34:04.856Z,10.20
2018-12-22T10:35:05.029Z,10.20
2018-12-22T10:36:05.013Z,10.20
2018-12-22T10:37:04.504Z,10.20
2018-12-22T10:38:04.871Z,10.30
2018-12-22T10:39:04.701Z,10.30
2018-12-22T10:40:04.801Z,10.30
2018-12-22T10:41:04.818Z,10.20
2018-12-22T10:42:09.933Z,10.20
2018-12-22T10:43:04.343Z,10.20
2018-12-22T10:44:05.011Z,10.30
2018-12-22T10:45:05.037Z,10.20
2018-12-22T10:46:04.835Z,10.20
2018-12-22T10:47:04.823Z,10.20
2018-12-22T10:48:04.944Z,10.30
2018-12-22T10:49:04.867Z,10.20
2018-12-22T10:50:05.034Z,10.20
2018-12-22T10:51:05.145Z,10.20
2018-12-22T10:52:05.203Z,10.20
2018-12-22T10:53:04.331Z,10.20
2018-12-22T10:54:04.359Z,10.20
2018-12-22T10:55:04.906Z,10.20
2018-12-22T10:56:04.434Z,10.20
2018-12-22T10:57:04.953Z,10.20
2018-12-22T10:58:05.156Z,10.20
2018-12-22T10:59:04.623Z,10.20
2018-12-22T11:00:04.721Z,10.20
2018-12-22T11:01:04.690Z,10.20
2018-12-22T11:02:04.344Z,10.20
2018-12-22T11:03:04.368Z,10.20
2018-12-22T11:04:04.515Z,10.20
2018-12-22T11:05:04.992Z,10.20
2018-12-22T11:06:05.217Z,10.20
2018-12-22T11:07:04.205Z,10.20
2018-12-22T11:08:04.413Z,10.20
2018-12-22T11:09:04.833Z,10.20
2018-12-22T11:10:05.030Z,10.20
2018-12-22T11:11:04.472Z,10.20
2018-12-22T11:12:04.561Z,10.10
2018-12-22T11:13:05.195Z,10.10
2018-12-22T11:14:04.336Z,10.10
2018-12-22T11:15:04.387Z,10.10
2018-12-22T11:16:04.796Z,10.10
2018-12-22T11:17:04.367Z,10.10
2018-12-22T11:18:04.618Z,10.20
2018-12-22T11:19:04.616Z,10.10
2018-12-22T11:20:05.619Z,10.10
2018-12-22T11:21:04.193Z,10.10
2018-12-22T11:22:04.461Z,10.10
2018-12-22T11:23:04.856Z,10.10
2018-12-22T11:24:04.422Z,10.10
2018-12-22T11:25:04.497Z,10.10
2018-12-22T11:26:04.957Z,10.10
2018-12-22T11:27:05.015Z,10.10
2018-12-22T11:28:05.250Z,10.10
2018-12-22T11:29:04.684Z,10.10
2018-12-22T11:30:04.811Z,10.10
2018-12-22T11:31:04.745Z,10.10
2018-12-22T11:32:05.102Z,10.10
2018-12-22T11:33:04.423Z,10.10
2018-12-22T11:34:04.853Z,10.10
2018-12-22T11:35:04.892Z,10.10
2018-12-22T11:36:05.054Z,10.10
2018-12-22T11:37:04.399Z,10.10
2018-12-22T11:38:04.660Z,10.10
2018-12-22T11:39:04.193Z,10.10
2018-12-22T11:40:04.969Z,10.10
2018-12-22T11:41:04.900Z,10.10
2018-12-22T11:42:04.253Z,10.10
2018-12-22T11:43:04.568Z,10.10
2018-12-22T11:44:04.586Z,10.00
2018-12-22T11:45:05.134Z,10.10
2018-12-22T11:46:04.869Z,10.00
2018-12-22T11:47:05.062Z,10.10
2018-12-22T11:48:04.325Z,10.00
2018-12-22T11:49:04.631Z,10.00
2018-12-22T11:50:04.929Z,10.00
2018-12-22T11:51:04.255Z,10.00
2018-12-22T11:52:04.465Z,10.00
2018-12-22T11:53:04.595Z,10.00
2018-12-22T11:54:05.197Z,10.00
2018-12-22T11:55:04.923Z,10.00
2018-12-22T11:56:05.026Z,10.00
2018-12-22T11:57:05.197Z,10.00
2018-12-22T11:58:04.853Z,10.00
2018-12-22T11:59:04.982Z,10.00
2018-12-22T12:00:05.078Z,9.90
2018-12-22T12:01:04.653Z,9.90
2018-12-22T12:02:09.431Z,9.90
2018-12-22T12:03:04.772Z,9.90
2018-12-22T12:04:04.892Z,9.90
2018-12-22T12:05:04.894Z,9.90
2018-12-22T12:06:04.549Z,9.90
2018-12-22T12:07:04.763Z,9.90
2018-12-22T12:08:04.456Z,9.90
2018-12-22T12:09:04.519Z,9.90
2018-12-22T12:10:04.676Z,9.90
2018-12-22T12:11:04.658Z,9.90
2018-12-22T12:12:04.189Z,9.90
2018-12-22T12:13:04.394Z,9.80
2018-12-22T12:14:04.436Z,9.90
2018-12-22T12:15:05.168Z,9.80
2018-12-22T12:16:05.294Z,9.80
2018-12-22T12:17:04.757Z,9.80
2018-12-22T12:18:04.350Z,9.80
2018-12-22T12:19:04.567Z,9.80
2018-12-22T12:20:05.006Z,9.80
2018-12-22T12:21:04.411Z,9.80
2018-12-22T12:22:04.421Z,9.80
2018-12-22T12:23:04.815Z,9.70
2018-12-22T12:24:05.054Z,9.80
2018-12-22T12:25:05.214Z,9.70
2018-12-22T12:26:04.995Z,9.70
2018-12-22T12:27:04.550Z,9.70
2018-12-22T12:28:04.726Z,9.70
2018-12-22T12:29:05.160Z,9.70
2018-12-22T12:30:04.949Z,9.70
2018-12-22T12:31:04.323Z,9.70
2018-12-22T12:32:04.811Z,9.70
2018-12-22T12:33:04.408Z,9.70
2018-12-22T12:34:04.474Z,9.60
2018-12-22T12:35:04.260Z,9.60
2018-12-22T12:36:04.333Z,9.60
2018-12-22T12:37:04.601Z,9.60
2018-12-22T12:38:04.964Z,9.60
2018-12-22T12:39:04.430Z,9.60
2018-12-22T12:40:04.813Z,9.60
2018-12-22T12:41:04.954Z,9.50
2018-12-22T12:42:05.154Z,9.50
2018-12-22T12:43:04.627Z,9.50
2018-12-22T12:44:04.462Z,9.50
2018-12-22T12:45:05.173Z,9.50
2018-12-22T12:46:04.179Z,9.50
2018-12-22T12:47:04.494Z,9.40
2018-12-22T12:48:04.509Z,9.40
2018-12-22T12:49:05.050Z,9.40
2018-12-22T12:50:04.381Z,9.40
2018-12-22T12:51:04.434Z,9.40
2018-12-22T12:52:04.633Z,9.40
2018-12-22T12:53:09.507Z,9.30
2018-12-22T12:54:04.568Z,9.30
2018-12-22T12:55:04.538Z,9.30
2018-12-22T12:56:04.940Z,9.30
2018-12-22T12:57:05.026Z,9.30
2018-12-22T12:58:05.010Z,9.30
2018-12-22T12:59:04.712Z,9.20
2018-12-22T13:00:05.031Z,9.20
2018-12-22T13:01:04.941Z,9.20
2018-12-22T13:02:04.610Z,9.20
2018-12-22T13:03:04.972Z,9.20
2018-12-22T13:04:05.117Z,9.20
2018-12-22T13:05:04.250Z,9.10
2018-12-22T13:06:04.459Z,9.10
2018-12-22T13:07:04.895Z,9.10
2018-12-22T13:08:05.053Z,9.10
2018-12-22T13:09:04.425Z,9.00
2018-12-22T13:10:04.670Z,9.00
2018-12-22T13:11:04.638Z,9.00
2018-12-22T13:12:05.100Z,9.00
2018-12-22T13:13:05.042Z,8.90